Time;durP1;ratioP1;P1;durP2;ratioP2;P2;SDS_P1;SDS_P2;PMS_P1;PMS_P2;Temp;Humidity;BMP_temperature;BMP_pressure;BME280_temperature;BME280_humidity;BME280_pressure;Samples;Min_cycle;Max_cycle;Signal;HPM_P1;HPM_P2
2023/09/16 00:01:33;;;;;;;5.00;3.60;;;;;;;;;;4938514;29;20028;-79
2023/09/16 00:03:59;;;;;;;7.72;3.80;;;;;;;;;;4926479;29;20657;-80
2023/09/16 00:06:24;;;;;;;5.72;3.55;;;;;;;;;;4933992;29;20039;-80
2023/09/16 00:08:49;;;;;;;5.40;3.53;;;;;;;;;;4938268;29;20071;-79
2023/09/16 00:11:15;;;;;;;6.20;3.17;;;;;;;;;;4938497;29;20283;-79
2023/09/16 00:13:41;;;;;;;7.07;4.68;;;;;;;;;;4936800;29;20692;-79
2023/09/16 00:16:06;;;;;;;5.40;3.63;;;;;;;;;;4937016;29;20042;-79
2023/09/16 00:18:32;;;;;;;4.90;3.17;;;;;;;;;;4938751;29;20020;-79
2023/09/16 00:20:57;;;;;;;5.18;3.53;;;;;;;;;;4935807;29;20597;-79
2023/09/16 00:23:22;;;;;;;6.63;4.10;;;;;;;;;;4936906;29;20036;-79
2023/09/16 00:25:48;;;;;;;5.00;3.45;;;;;;;;;;4937110;29;20027;-78
2023/09/16 00:28:13;;;;;;;7.50;3.67;;;;;;;;;;4938507;29;20111;-79
2023/09/16 00:30:44;;;;;;;6.47;3.72;;;;;;;;;;4936342;29;20160;-79
2023/09/16 00:33:10;;;;;;;5.78;3.70;;;;;;;;;;4938117;29;20044;-79
2023/09/16 00:35:35;;;;;;;6.70;3.53;;;;;;;;;;4936772;29;20516;-80
2023/09/16 00:38:00;;;;;;;6.25;4.22;;;;;;;;;;4938152;29;20531;-79
2023/09/16 00:40:26;;;;;;;6.13;4.03;;;;;;;;;;4938275;29;20036;-79
2023/09/16 00:42:51;;;;;;;5.25;3.65;;;;;;;;;;4936528;29;20031;-79
2023/09/16 00:45:17;;;;;;;5.38;3.38;;;;;;;;;;4936599;29;20028;-79
2023/09/16 00:47:42;;;;;;;6.40;3.65;;;;;;;;;;4936711;29;20040;-79
2023/09/16 00:50:09;;;;;;;6.68;4.53;;;;;;;;;;4934274;29;20040;-79
2023/09/16 00:52:37;;;;;;;5.65;4.13;;;;;;;;;;4937704;29;20497;-80
2023/09/16 00:55:02;;;;;;;5.78;4.05;;;;;;;;;;4936794;29;20082;-79
2023/09/16 00:57:29;;;;;;;5.38;3.65;;;;;;;;;;4933597;29;20051;-79
2023/09/16 00:59:54;;;;;;;8.18;4.28;;;;;;;;;;4936367;29;20046;-79
2023/09/16 01:02:19;;;;;;;7.07;4.88;;;;;;;;;;4937583;29;20114;-78
2023/09/16 01:04:46;;;;;;;6.60;4.25;;;;;;;;;;4936314;29;20031;-79
2023/09/16 01:07:14;;;;;;;6.68;4.72;;;;;;;;;;4933378;29;20111;-79
2023/09/16 01:09:40;;;;;;;6.47;3.90;;;;;;;;;;4935667;29;20031;-79
2023/09/16 01:12:05;;;;;;;5.68;4.38;;;;;;;;;;4933616;29;20130;-79
2023/09/16 01:14:30;;;;;;;7.35;4.30;;;;;;;;;;4934077;29;20034;-79
2023/09/16 01:16:58;;;;;;;6.90;4.85;;;;;;;;;;4929035;29;20028;-79
2023/09/16 01:19:23;;;;;;;6.72;4.22;;;;;;;;;;4936543;29;20032;-79
2023/09/16 01:21:49;;;;;;;7.90;4.43;;;;;;;;;;4934013;29;20071;-79
2023/09/16 01:24:15;;;;;;;6.30;4.50;;;;;;;;;;4937395;29;20359;-79
2023/09/16 01:26:40;;;;;;;6.03;4.30;;;;;;;;;;4936093;29;20051;-78
2023/09/16 01:29:05;;;;;;;6.83;4.47;;;;;;;;;;4932801;29;20057;-79
2023/09/16 01:31:31;;;;;;;6.63;4.18;;;;;;;;;;4935807;29;20330;-78
2023/09/16 01:33:58;;;;;;;8.05;3.88;;;;;;;;;;4936760;29;20036;-78
2023/09/16 01:36:26;;;;;;;6.10;4.53;;;;;;;;;;4935737;29;20496;-79
2023/09/16 01:38:55;;;;;;;7.03;4.80;;;;;;;;;;4933552;29;20452;-79
2023/09/16 01:41:21;;;;;;;8.02;4.25;;;;;;;;;;4936291;29;20027;-79
2023/09/16 01:43:46;;;;;;;6.60;4.50;;;;;;;;;;4937090;29;20024;-79
2023/09/16 01:46:12;;;;;;;9.65;5.13;;;;;;;;;;4935780;29;20127;-79
2023/09/16 01:48:37;;;;;;;8.35;4.57;;;;;;;;;;4935257;29;20444;-79
2023/09/16 01:51:03;;;;;;;8.65;4.20;;;;;;;;;;4935558;29;20028;-78
2023/09/16 01:53:28;;;;;;;7.68;5.10;;;;;;;;;;4936713;29;20035;-79
2023/09/16 01:55:53;;;;;;;6.10;3.88;;;;;;;;;;4919264;29;20042;-79
2023/09/16 01:58:18;;;;;;;6.47;4.63;;;;;;;;;;4932624;29;20408;-79
2023/09/16 02:00:43;;;;;;;7.30;4.95;;;;;;;;;;4919749;29;20319;-79
2023/09/16 02:03:09;;;;;;;8.95;4.75;;;;;;;;;;4935019;29;20063;-79
2023/09/16 02:05:34;;;;;;;7.28;4.40;;;;;;;;;;4932922;29;20050;-78
2023/09/16 02:08:01;;;;;;;7.18;4.50;;;;;;;;;;4934937;29;20034;-79
2023/09/16 02:10:26;;;;;;;6.97;4.50;;;;;;;;;;4935844;29;20118;-79
2023/09/16 02:12:51;;;;;;;8.13;5.30;;;;;;;;;;4932756;29;20028;-79
2023/09/16 02:15:17;;;;;;;7.30;4.40;;;;;;;;;;4936070;29;20043;-79
2023/09/16 02:17:42;;;;;;;6.53;4.45;;;;;;;;;;4936383;29;20038;-79
2023/09/16 02:20:10;;;;;;;9.20;4.85;;;;;;;;;;4935156;29;20032;-79
2023/09/16 02:22:37;;;;;;;5.00;3.80;;;;;;;;;;4935131;29;20039;-79
2023/09/16 02:25:03;;;;;;;6.57;4.18;;;;;;;;;;4934089;29;20031;-79
2023/09/16 02:27:28;;;;;;;7.43;4.70;;;;;;;;;;4934813;29;20032;-78
2023/09/16 02:29:53;;;;;;;6.93;4.65;;;;;;;;;;4934997;29;20087;-80
2023/09/16 02:32:18;;;;;;;7.85;4.93;;;;;;;;;;4936326;29;20118;-79
2023/09/16 02:34:43;;;;;;;7.18;4.72;;;;;;;;;;4919576;29;20039;-79
2023/09/16 02:37:09;;;;;;;7.97;5.25;;;;;;;;;;4935266;29;20031;-80
2023/09/16 02:39:34;;;;;;;7.38;5.68;;;;;;;;;;4935783;29;20412;-80
2023/09/16 02:42:00;;;;;;;6.97;4.57;;;;;;;;;;4935204;29;20023;-79
2023/09/16 02:44:28;;;;;;;8.55;4.93;;;;;;;;;;4924515;29;20038;-78
2023/09/16 02:46:53;;;;;;;6.60;4.75;;;;;;;;;;4934722;29;20408;-79
2023/09/16 02:49:18;;;;;;;9.07;4.38;;;;;;;;;;4930591;29;20035;-79
2023/09/16 02:51:44;;;;;;;7.40;4.97;;;;;;;;;;4931424;29;20034;-80
2023/09/16 02:54:09;;;;;;;8.10;5.00;;;;;;;;;;4921007;29;21584;-80
2023/09/16 02:56:34;;;;;;;6.68;4.65;;;;;;;;;;4934720;29;20032;-80
2023/09/16 02:59:01;;;;;;;8.07;4.97;;;;;;;;;;4936009;29;20035;-80
2023/09/16 03:01:26;;;;;;;8.05;4.78;;;;;;;;;;4938994;29;20281;-80
2023/09/16 03:03:51;;;;;;;6.07;4.30;;;;;;;;;;4938931;29;20153;-79
2023/09/16 03:06:17;;;;;;;7.18;5.00;;;;;;;;;;4939114;29;20024;-79
2023/09/16 03:08:42;;;;;;;8.52;5.65;;;;;;;;;;4937279;29;20115;-79
2023/09/16 03:11:12;;;;;;;6.20;4.68;;;;;;;;;;4922618;29;20070;-79
2023/09/16 03:13:38;;;;;;;7.70;5.22;;;;;;;;;;4928625;29;20091;-80
2023/09/16 03:16:16;;;;;;;7.10;5.13;;;;;;;;;;4937819;29;20055;-79
2023/09/16 03:18:45;;;;;;;7.05;4.55;;;;;;;;;;4921691;29;20027;-79
2023/09/16 03:21:11;;;;;;;9.82;4.43;;;;;;;;;;4917037;29;20118;-80
2023/09/16 03:23:36;;;;;;;11.88;5.32;;;;;;;;;;4934971;29;20055;-79
2023/09/16 03:26:01;;;;;;;6.93;5.15;;;;;;;;;;4935438;29;20016;-78
2023/09/16 03:28:27;;;;;;;7.05;5.50;;;;;;;;;;4922267;29;20020;-78
2023/09/16 03:30:52;;;;;;;6.97;5.55;;;;;;;;;;4933720;29;20028;-78
2023/09/16 03:33:17;;;;;;;8.40;4.95;;;;;;;;;;4932788;29;20080;-79
2023/09/16 03:35:43;;;;;;;8.93;5.53;;;;;;;;;;4935237;29;20027;-79
2023/09/16 03:38:09;;;;;;;7.82;6.13;;;;;;;;;;4935309;29;20035;-81
2023/09/16 03:40:34;;;;;;;7.30;5.15;;;;;;;;;;4936222;29;20026;-79
2023/09/16 03:42:59;;;;;;;7.13;5.05;;;;;;;;;;4928728;29;20036;-79
2023/09/16 03:45:24;;;;;;;6.72;4.93;;;;;;;;;;4937872;29;20039;-79
2023/09/16 03:47:49;;;;;;;7.32;4.80;;;;;;;;;;4930414;29;20046;-79
2023/09/16 03:50:15;;;;;;;7.47;4.90;;;;;;;;;;4928998;29;20037;-80
2023/09/16 03:52:40;;;;;;;8.05;5.70;;;;;;;;;;4934467;29;20477;-79
2023/09/16 03:55:05;;;;;;;6.07;4.93;;;;;;;;;;4920771;29;20074;-79
2023/09/16 03:57:31;;;;;;;6.97;5.05;;;;;;;;;;4929421;29;20484;-79
2023/09/16 03:59:56;;;;;;;7.30;4.88;;;;;;;;;;4931441;29;20102;-81
2023/09/16 04:02:21;;;;;;;7.32;5.47;;;;;;;;;;4928923;29;20175;-79
2023/09/16 04:04:46;;;;;;;8.23;5.25;;;;;;;;;;4932915;29;20115;-79
2023/09/16 04:07:12;;;;;;;7.65;5.05;;;;;;;;;;4930907;29;20419;-79
2023/09/16 04:09:37;;;;;;;8.35;5.05;;;;;;;;;;4933675;29;20493;-79
2023/09/16 04:12:02;;;;;;;8.45;5.63;;;;;;;;;;4935895;29;20038;-79
2023/09/16 04:14:28;;;;;;;7.32;5.53;;;;;;;;;;4931562;29;20031;-79
2023/09/16 04:16:53;;;;;;;7.43;5.03;;;;;;;;;;4929393;29;20020;-79
2023/09/16 04:19:18;;;;;;;7.90;5.37;;;;;;;;;;4929504;29;20772;-79
2023/09/16 04:21:46;;;;;;;8.80;5.88;;;;;;;;;;4934611;29;20274;-79
2023/09/16 04:24:12;;;;;;;7.43;5.50;;;;;;;;;;4918571;29;20059;-79
2023/09/16 04:26:37;;;;;;;6.80;5.10;;;;;;;;;;4937566;29;20047;-78
2023/09/16 04:29:03;;;;;;;5.82;4.63;;;;;;;;;;4924098;29;20027;-80
2023/09/16 04:31:30;;;;;;;7.80;4.97;;;;;;;;;;4930021;29;20031;-80
2023/09/16 04:33:55;;;;;;;7.75;4.93;;;;;;;;;;4913162;29;20087;-79
2023/09/16 04:36:22;;;;;;;6.53;4.72;;;;;;;;;;4932608;29;20063;-80
2023/09/16 04:38:48;;;;;;;7.20;4.85;;;;;;;;;;4931817;29;20107;-79
2023/09/16 04:41:14;;;;;;;11.65;6.15;;;;;;;;;;4930675;29;20501;-79
2023/09/16 04:43:39;;;;;;;11.18;6.43;;;;;;;;;;4929243;29;20050;-79
2023/09/16 04:46:06;;;;;;;7.18;6.00;;;;;;;;;;4931814;29;20024;-79
2023/09/16 04:48:35;;;;;;;8.70;5.72;;;;;;;;;;4928745;29;20023;-79
2023/09/16 04:51:03;;;;;;;7.15;4.93;;;;;;;;;;4932631;29;20114;-79
2023/09/16 04:53:28;;;;;;;7.65;5.18;;;;;;;;;;4934005;29;20034;-79
2023/09/16 04:56:00;;;;;;;6.50;4.70;;;;;;;;;;4932590;29;20114;-79
2023/09/16 04:58:26;;;;;;;7.60;5.00;;;;;;;;;;4924794;29;20032;-79
2023/09/16 05:00:51;;;;;;;8.77;5.03;;;;;;;;;;4952503;23;20047;-79
2023/09/16 05:03:18;;;;;;;7.32;5.28;;;;;;;;;;4929788;29;20392;-79
2023/09/16 05:05:46;;;;;;;10.48;4.80;;;;;;;;;;4935774;29;20111;-79
2023/09/16 05:08:12;;;;;;;7.93;4.78;;;;;;;;;;4926637;29;20039;-79
2023/09/16 05:10:37;;;;;;;7.15;4.72;;;;;;;;;;4929176;29;20020;-79
2023/09/16 05:13:03;;;;;;;7.32;4.25;;;;;;;;;;4933744;29;20541;-79
2023/09/16 05:15:28;;;;;;;7.05;4.60;;;;;;;;;;4931061;29;20095;-79
2023/09/16 05:17:53;;;;;;;7.95;4.28;;;;;;;;;;4927507;29;20472;-79
2023/09/16 05:20:20;;;;;;;7.07;4.90;;;;;;;;;;4932532;29;20119;-79
2023/09/16 05:22:48;;;;;;;6.78;4.20;;;;;;;;;;4923340;29;20114;-79
2023/09/16 05:25:14;;;;;;;7.30;4.97;;;;;;;;;;4927578;29;20385;-79
2023/09/16 05:27:39;;;;;;;7.18;4.63;;;;;;;;;;4925765;29;20030;-77
2023/09/16 05:30:05;;;;;;;6.75;4.50;;;;;;;;;;4931331;29;20032;-77
2023/09/16 05:32:31;;;;;;;9.27;5.53;;;;;;;;;;4927198;29;20095;-77
2023/09/16 05:34:57;;;;;;;8.75;4.13;;;;;;;;;;4924453;29;20031;-77
2023/09/16 05:37:22;;;;;;;5.72;4.50;;;;;;;;;;4926988;29;20029;-77
2023/09/16 05:39:47;;;;;;;7.82;5.68;;;;;;;;;;4924120;29;20032;-77
2023/09/16 05:42:13;;;;;;;6.18;4.70;;;;;;;;;;4924867;29;20054;-77
2023/09/16 05:44:39;;;;;;;7.72;4.75;;;;;;;;;;4926029;29;20036;-77
2023/09/16 05:47:04;;;;;;;6.53;4.95;;;;;;;;;;4913556;29;20492;-76
2023/09/16 05:49:30;;;;;;;7.03;4.32;;;;;;;;;;4929350;29;20020;-77
2023/09/16 05:51:55;;;;;;;6.53;4.72;;;;;;;;;;4929036;29;20036;-77
2023/09/16 05:54:21;;;;;;;7.93;4.65;;;;;;;;;;4925676;29;20021;-77
2023/09/16 05:56:46;;;;;;;6.30;4.65;;;;;;;;;;4924189;29;20411;-78
2023/09/16 05:59:15;;;;;;;6.15;4.30;;;;;;;;;;4931718;29;20035;-78
2023/09/16 06:01:40;;;;;;;6.53;4.63;;;;;;;;;;4930939;29;20127;-79
2023/09/16 06:04:08;;;;;;;8.77;5.30;;;;;;;;;;4931196;29;20063;-78
2023/09/16 06:06:34;;;;;;;6.78;5.65;;;;;;;;;;4930604;29;20095;-78
2023/09/16 06:09:00;;;;;;;9.07;4.88;;;;;;;;;;4927124;29;20024;-78
2023/09/16 06:11:28;;;;;;;7.57;5.43;;;;;;;;;;4929613;29;20027;-78
2023/09/16 06:13:54;;;;;;;7.63;5.50;;;;;;;;;;4928795;29;20052;-78
2023/09/16 06:16:19;;;;;;;6.97;5.10;;;;;;;;;;4930306;29;20027;-79
2023/09/16 06:18:44;;;;;;;8.30;5.03;;;;;;;;;;4926280;29;20082;-78
2023/09/16 06:21:09;;;;;;;6.07;4.67;;;;;;;;;;4923256;29;20027;-78
2023/09/16 06:23:35;;;;;;;7.22;4.55;;;;;;;;;;4930104;29;20633;-78
2023/09/16 06:26:00;;;;;;;7.13;5.38;;;;;;;;;;4933325;29;20039;-78
2023/09/16 06:28:27;;;;;;;7.35;5.00;;;;;;;;;;4929912;29;20024;-79
2023/09/16 06:30:53;;;;;;;9.88;4.93;;;;;;;;;;4926623;29;20038;-78
2023/09/16 06:33:19;;;;;;;6.85;4.75;;;;;;;;;;4924031;29;20106;-78
2023/09/16 06:35:44;;;;;;;8.05;4.88;;;;;;;;;;4923186;29;20168;-78
2023/09/16 06:38:09;;;;;;;8.00;5.30;;;;;;;;;;4926401;29;20040;-79
2023/09/16 06:40:35;;;;;;;8.23;5.00;;;;;;;;;;4929112;29;20039;-79
2023/09/16 06:43:00;;;;;;;6.50;4.78;;;;;;;;;;4924547;29;20509;-78
2023/09/16 06:45:27;;;;;;;8.00;5.43;;;;;;;;;;4928876;29;20036;-78
2023/09/16 06:47:55;;;;;;;6.82;4.30;;;;;;;;;;4921731;29;20032;-78
2023/09/16 06:50:20;;;;;;;7.28;5.28;;;;;;;;;;4922759;29;20028;-79
2023/09/16 06:52:45;;;;;;;7.10;5.30;;;;;;;;;;4924645;29;20028;-80
2023/09/16 06:55:10;;;;;;;6.33;4.63;;;;;;;;;;4925840;29;20027;-78
2023/09/16 06:57:35;;;;;;;6.87;4.03;;;;;;;;;;4925339;29;20269;-79
2023/09/16 07:00:00;;;;;;;5.90;4.20;;;;;;;;;;4924022;29;20319;-79
2023/09/16 07:02:26;;;;;;;6.72;4.95;;;;;;;;;;4925191;29;20382;-79
2023/09/16 07:04:51;;;;;;;6.60;4.32;;;;;;;;;;4928951;29;20036;-79
2023/09/16 07:07:16;;;;;;;6.15;4.72;;;;;;;;;;4925672;29;20490;-79
2023/09/16 07:09:41;;;;;;;7.60;4.80;;;;;;;;;;4931986;29;20042;-79
2023/09/16 07:12:07;;;;;;;6.25;4.55;;;;;;;;;;4932090;29;20637;-78
2023/09/16 07:14:35;;;;;;;6.20;4.50;;;;;;;;;;4927645;29;20059;-79
2023/09/16 07:17:00;;;;;;;6.10;4.22;;;;;;;;;;4926713;29;20032;-78
2023/09/16 07:19:26;;;;;;;7.33;4.30;;;;;;;;;;4935567;29;20024;-78
2023/09/16 07:21:51;;;;;;;6.90;4.60;;;;;;;;;;4930884;29;20275;-78
2023/09/16 07:24:16;;;;;;;9.93;4.67;;;;;;;;;;4928321;29;20036;-79
2023/09/16 07:26:44;;;;;;;8.07;4.50;;;;;;;;;;4927198;29;20303;-79
2023/09/16 07:29:10;;;;;;;5.72;4.10;;;;;;;;;;4922521;29;20287;-78
2023/09/16 07:31:35;;;;;;;6.18;4.38;;;;;;;;;;4930234;29;20031;-78
2023/09/16 07:34:00;;;;;;;5.95;3.95;;;;;;;;;;4927021;29;20035;-78
2023/09/16 07:36:25;;;;;;;6.85;4.57;;;;;;;;;;4923219;29;20040;-78
2023/09/16 07:38:51;;;;;;;6.10;4.10;;;;;;;;;;4925753;29;20465;-78
2023/09/16 07:41:17;;;;;;;5.13;3.90;;;;;;;;;;4925076;29;20642;-78
2023/09/16 07:43:42;;;;;;;5.32;3.42;;;;;;;;;;4930498;29;20272;-78
2023/09/16 07:46:07;;;;;;;7.37;4.20;;;;;;;;;;4929130;29;20484;-78
2023/09/16 07:48:33;;;;;;;8.43;3.40;;;;;;;;;;4927329;29;20280;-78
2023/09/16 07:50:58;;;;;;;6.53;3.13;;;;;;;;;;4929071;29;20280;-79
2023/09/16 07:53:23;;;;;;;7.10;3.63;;;;;;;;;;4927288;29;20135;-78
2023/09/16 07:55:48;;;;;;;5.50;3.20;;;;;;;;;;4928425;29;20031;-79
2023/09/16 07:58:13;;;;;;;4.50;3.00;;;;;;;;;;4928019;29;20876;-78
2023/09/16 08:00:39;;;;;;;5.17;3.17;;;;;;;;;;4928197;29;20280;-78
2023/09/16 08:03:04;;;;;;;8.57;3.37;;;;;;;;;;4929249;29;20763;-78
2023/09/16 08:05:29;;;;;;;5.05;3.22;;;;;;;;;;4927358;29;20272;-78
2023/09/16 08:07:54;;;;;;;8.40;3.20;;;;;;;;;;4926138;29;20099;-79
2023/09/16 08:10:19;;;;;;;4.83;2.90;;;;;;;;;;4930016;29;20287;-79
2023/09/16 08:12:44;;;;;;;5.25;2.50;;;;;;;;;;4925935;29;20280;-79
2023/09/16 08:15:10;;;;;;;4.80;3.00;;;;;;;;;;4928931;29;20123;-79
2023/09/16 08:17:37;;;;;;;3.70;2.70;;;;;;;;;;4926378;29;20275;-79
2023/09/16 08:20:03;;;;;;;5.25;3.17;;;;;;;;;;4931365;29;20669;-79
2023/09/16 08:22:29;;;;;;;7.32;2.72;;;;;;;;;;4925465;29;20032;-79
2023/09/16 08:24:54;;;;;;;4.70;2.97;;;;;;;;;;4929084;29;20058;-79
2023/09/16 08:27:20;;;;;;;8.07;3.57;;;;;;;;;;4928473;29;20035;-79
2023/09/16 08:29:45;;;;;;;5.30;2.95;;;;;;;;;;4927665;29;20401;-79
2023/09/16 08:32:11;;;;;;;5.22;2.60;;;;;;;;;;4928673;29;20040;-79
2023/09/16 08:34:36;;;;;;;6.53;3.60;;;;;;;;;;4926147;29;20032;-79
2023/09/16 08:37:01;;;;;;;4.73;2.93;;;;;;;;;;4929508;29;20294;-79
2023/09/16 08:39:26;;;;;;;5.13;2.20;;;;;;;;;;4928715;29;20283;-79
2023/09/16 08:42:00;;;;;;;4.50;2.53;;;;;;;;;;4925805;29;20417;-79
2023/09/16 08:44:28;;;;;;;4.90;2.90;;;;;;;;;;4930870;29;20358;-79
2023/09/16 08:47:04;;;;;;;4.57;2.92;;;;;;;;;;4925226;29;20115;-79
2023/09/16 08:49:30;;;;;;;4.63;2.70;;;;;;;;;;4930245;28;20034;-79
2023/09/16 08:51:59;;;;;;;4.68;2.08;;;;;;;;;;4924914;29;20056;-79
2023/09/16 08:54:24;;;;;;;4.80;2.63;;;;;;;;;;4932312;29;20055;-78
2023/09/16 08:56:49;;;;;;;4.90;2.70;;;;;;;;;;4926136;29;20469;-79
2023/09/16 08:59:14;;;;;;;7.93;2.47;;;;;;;;;;4929144;29;20039;-79
2023/09/16 09:01:42;;;;;;;5.80;2.60;;;;;;;;;;4925737;29;20904;-79
2023/09/16 09:04:07;;;;;;;5.22;2.60;;;;;;;;;;4925142;29;20799;-79
2023/09/16 09:06:32;;;;;;;4.55;2.75;;;;;;;;;;4928667;29;20063;-79
2023/09/16 09:08:57;;;;;;;6.72;2.53;;;;;;;;;;4926395;29;20055;-79
2023/09/16 09:11:23;;;;;;;4.50;2.43;;;;;;;;;;4930946;29;20110;-78
2023/09/16 09:13:49;;;;;;;4.70;2.47;;;;;;;;;;4926567;29;20375;-79
2023/09/16 09:16:15;;;;;;;5.15;2.70;;;;;;;;;;4924181;29;20077;-79
2023/09/16 09:18:40;;;;;;;4.80;3.25;;;;;;;;;;4926478;29;20020;-79
2023/09/16 09:21:05;;;;;;;7.63;3.50;;;;;;;;;;4928177;29;20425;-79
2023/09/16 09:23:31;;;;;;;4.78;2.50;;;;;;;;;;4931461;29;20508;-79
2023/09/16 09:25:57;;;;;;;5.55;2.42;;;;;;;;;;4927928;29;20114;-79
2023/09/16 09:28:22;;;;;;;8.38;2.47;;;;;;;;;;4925801;29;20034;-79
2023/09/16 09:30:48;;;;;;;5.47;2.47;;;;;;;;;;4924995;29;20433;-79
2023/09/16 09:33:14;;;;;;;4.97;2.38;;;;;;;;;;4928664;29;20396;-79
2023/09/16 09:35:39;;;;;;;5.18;2.70;;;;;;;;;;4925692;29;20115;-79
2023/09/16 09:38:04;;;;;;;4.40;2.60;;;;;;;;;;4926834;29;20039;-79
2023/09/16 09:40:29;;;;;;;4.00;2.40;;;;;;;;;;4924741;29;20024;-79
2023/09/16 09:42:58;;;;;;;4.55;2.50;;;;;;;;;;4925382;29;20489;-79
2023/09/16 09:45:24;;;;;;;3.53;2.50;;;;;;;;;;4931690;29;20067;-79
2023/09/16 09:47:50;;;;;;;3.55;2.15;;;;;;;;;;4927185;29;20476;-79
2023/09/16 09:50:17;;;;;;;3.95;2.10;;;;;;;;;;4925660;29;20043;-79
2023/09/16 09:52:50;;;;;;;4.25;2.28;;;;;;;;;;4923959;29;20028;-79
2023/09/16 09:55:16;;;;;;;5.68;2.38;;;;;;;;;;4925710;29;20143;-79
2023/09/16 09:57:42;;;;;;;5.43;2.38;;;;;;;;;;4944719;28;20074;-79
2023/09/16 10:00:07;;;;;;;4.88;2.15;;;;;;;;;;4932900;29;20344;-79
2023/09/16 10:02:39;;;;;;;6.07;2.25;;;;;;;;;;4926658;29;20157;-79
2023/09/16 10:05:05;;;;;;;5.72;2.33;;;;;;;;;;4925469;29;20103;-79
2023/09/16 10:07:33;;;;;;;4.13;2.45;;;;;;;;;;4925107;29;20074;-79
2023/09/16 10:09:58;;;;;;;6.45;2.30;;;;;;;;;;4925915;29;20036;-79
2023/09/16 10:12:24;;;;;;;3.83;2.30;;;;;;;;;;4928449;29;20079;-79
2023/09/16 10:14:51;;;;;;;5.22;2.40;;;;;;;;;;4926273;29;20350;-79
2023/09/16 10:17:16;;;;;;;4.30;2.17;;;;;;;;;;4926410;29;20114;-79
2023/09/16 10:19:42;;;;;;;5.22;2.88;;;;;;;;;;4923739;29;20120;-79
2023/09/16 10:22:07;;;;;;;3.08;2.08;;;;;;;;;;4926275;29;20527;-79
2023/09/16 10:24:33;;;;;;;3.57;2.13;;;;;;;;;;4924286;29;20028;-79
2023/09/16 10:27:00;;;;;;;5.03;2.30;;;;;;;;;;4926725;29;20291;-80
2023/09/16 10:29:26;;;;;;;3.13;1.85;;;;;;;;;;4931400;29;20032;-80
2023/09/16 10:31:53;;;;;;;3.63;2.10;;;;;;;;;;4923611;29;20036;-78
2023/09/16 10:34:18;;;;;;;6.63;2.28;;;;;;;;;;4926399;29;20023;-80
2023/09/16 10:36:44;;;;;;;3.77;2.07;;;;;;;;;;4923239;29;20503;-80
2023/09/16 10:39:09;;;;;;;4.38;1.80;;;;;;;;;;4923323;29;20294;-80
2023/09/16 10:41:35;;;;;;;4.63;2.30;;;;;;;;;;4923794;29;20032;-80
2023/09/16 10:44:01;;;;;;;3.97;2.03;;;;;;;;;;4929566;29;20032;-80
2023/09/16 10:46:28;;;;;;;5.72;2.03;;;;;;;;;;4924654;29;20390;-80
2023/09/16 10:48:53;;;;;;;4.43;2.10;;;;;;;;;;4929749;29;20032;-80
2023/09/16 10:51:21;;;;;;;3.37;2.03;;;;;;;;;;4925725;29;20035;-80
2023/09/16 10:53:49;;;;;;;4.68;1.90;;;;;;;;;;4923518;29;20298;-80
2023/09/16 10:56:29;;;;;;;4.63;2.03;;;;;;;;;;4924834;29;20032;-79
2023/09/16 10:59:07;;;;;;;5.65;2.08;;;;;;;;;;4925082;29;20036;-80
2023/09/16 11:01:46;;;;;;;3.90;2.13;;;;;;;;;;4917530;29;20096;-80
2023/09/16 11:04:16;;;;;;;2.92;2.00;;;;;;;;;;4931227;29;20148;-80
2023/09/16 11:06:42;;;;;;;3.92;2.15;;;;;;;;;;4942686;23;20416;-79
2023/09/16 11:09:08;;;;;;;4.47;2.10;;;;;;;;;;4926963;29;20040;-79
2023/09/16 11:11:34;;;;;;;3.33;2.13;;;;;;;;;;4932032;29;20091;-79
2023/09/16 11:13:59;;;;;;;3.45;2.22;;;;;;;;;;4932344;29;20032;-79
2023/09/16 11:16:24;;;;;;;4.97;1.90;;;;;;;;;;4932843;29;20035;-79
2023/09/16 11:18:53;;;;;;;3.20;1.70;;;;;;;;;;4927071;29;20087;-79
2023/09/16 11:21:20;;;;;;;3.70;2.22;;;;;;;;;;4926667;29;20036;-79
2023/09/16 11:23:46;;;;;;;3.20;1.80;;;;;;;;;;4931556;29;20168;-79
2023/09/16 11:26:16;;;;;;;2.90;1.70;;;;;;;;;;4930557;29;20060;-79
2023/09/16 11:28:41;;;;;;;5.15;2.10;;;;;;;;;;4928752;29;20025;-80
2023/09/16 11:31:07;;;;;;;6.57;1.97;;;;;;;;;;4940027;29;20038;-79
2023/09/16 11:33:34;;;;;;;3.20;1.70;;;;;;;;;;4931219;29;20276;-82
2023/09/16 11:36:12;;;;;;;2.95;1.77;;;;;;;;;;4926637;29;20057;-80
2023/09/16 11:38:38;;;;;;;4.22;2.05;;;;;;;;;;4944025;29;20035;-80
2023/09/16 11:41:10;;;;;;;3.70;1.95;;;;;;;;;;4920362;29;20571;-80
2023/09/16 11:43:35;;;;;;;;;;;;;;;;;;4933502;29;20488;-81
2023/09/16 11:46:01;;;;;;;3.80;2.17;;;;;;;;;;4928032;29;20746;-80
2023/09/16 11:48:27;;;;;;;3.50;2.00;;;;;;;;;;4927695;29;20027;-81
2023/09/16 11:50:52;;;;;;;6.85;2.30;;;;;;;;;;4922333;29;20034;-81
2023/09/16 11:53:17;;;;;;;3.40;2.00;;;;;;;;;;4930694;29;20060;-81
2023/09/16 11:55:42;;;;;;;3.20;1.83;;;;;;;;;;4918271;29;20039;-80
2023/09/16 11:58:08;;;;;;;5.43;1.90;;;;;;;;;;4935428;29;20042;-81
2023/09/16 12:00:33;;;;;;;4.80;2.05;;;;;;;;;;4927699;29;20121;-80
2023/09/16 12:02:59;;;;;;;4.20;2.00;;;;;;;;;;4922318;29;20024;-79
2023/09/16 12:05:25;;;;;;;3.30;1.90;;;;;;;;;;4925760;29;20279;-79
2023/09/16 12:07:50;;;;;;;2.95;1.80;;;;;;;;;;4924645;29;20106;-79
2023/09/16 12:10:16;;;;;;;4.60;2.03;;;;;;;;;;4926549;29;20068;-79
2023/09/16 12:12:43;;;;;;;4.90;2.17;;;;;;;;;;4927500;29;20310;-79
2023/09/16 12:15:08;;;;;;;5.25;1.70;;;;;;;;;;4922362;29;20076;-79
2023/09/16 12:17:34;;;;;;;3.72;1.77;;;;;;;;;;4925252;29;20122;-79
2023/09/16 12:19:59;;;;;;;6.00;2.15;;;;;;;;;;4930221;29;20431;-81
2023/09/16 12:22:24;;;;;;;4.33;1.73;;;;;;;;;;4930723;29;20032;-79
2023/09/16 12:24:53;;;;;;;4.57;1.95;;;;;;;;;;4925482;29;20292;-79
2023/09/16 12:27:19;;;;;;;3.42;1.83;;;;;;;;;;4929250;29;20039;-79
2023/09/16 12:29:44;;;;;;;4.22;1.83;;;;;;;;;;4927971;29;20113;-79
2023/09/16 12:32:10;;;;;;;3.90;1.93;;;;;;;;;;4926214;29;20027;-79
2023/09/16 12:34:35;;;;;;;3.70;1.67;;;;;;;;;;4923755;29;20106;-79
2023/09/16 12:37:00;;;;;;;3.00;1.70;;;;;;;;;;4930063;29;20100;-79
2023/09/16 12:39:26;;;;;;;3.10;1.70;;;;;;;;;;4926537;29;20283;-79
2023/09/16 12:41:53;;;;;;;3.10;1.90;;;;;;;;;;4924910;29;20034;-80
2023/09/16 12:44:18;;;;;;;3.40;2.00;;;;;;;;;;4924401;29;20042;-79
2023/09/16 12:46:43;;;;;;;4.87;1.93;;;;;;;;;;4923143;29;20069;-79
2023/09/16 12:49:09;;;;;;;2.40;1.58;;;;;;;;;;4927573;29;20335;-79
2023/09/16 12:51:34;;;;;;;3.67;1.65;;;;;;;;;;4926701;29;20031;-79
2023/09/16 12:54:00;;;;;;;5.25;1.70;;;;;;;;;;4929254;29;20408;-79
2023/09/16 12:56:25;;;;;;;2.60;1.85;;;;;;;;;;4929567;29;20091;-84
2023/09/16 12:58:50;;;;;;;4.33;1.60;;;;;;;;;;4938731;29;20033;-83
2023/09/16 13:01:17;;;;;;;3.23;1.70;;;;;;;;;;4931322;29;20287;-84
2023/09/16 13:03:42;;;;;;;3.58;1.83;;;;;;;;;;4943251;29;20287;-83
2023/09/16 13:06:07;;;;;;;4.78;2.08;;;;;;;;;;4937905;29;20036;-84
2023/09/16 13:08:33;;;;;;;2.87;1.80;;;;;;;;;;4940308;29;20036;-83
2023/09/16 13:10:58;;;;;;;2.92;1.63;;;;;;;;;;4931576;29;20284;-84
2023/09/16 13:13:23;;;;;;;2.90;1.87;;;;;;;;;;4926567;29;20024;-83
2023/09/16 13:15:49;;;;;;;4.63;1.67;;;;;;;;;;4934496;29;20909;-82
2023/09/16 13:18:15;;;;;;;2.60;1.50;;;;;;;;;;4941677;29;20576;-83
2023/09/16 13:20:40;;;;;;;4.47;2.10;;;;;;;;;;4932338;29;20031;-83
2023/09/16 13:23:06;;;;;;;4.27;1.80;;;;;;;;;;4930435;29;20397;-82
2023/09/16 13:25:34;;;;;;;7.47;1.90;;;;;;;;;;4922191;29;20343;-83
2023/09/16 13:28:09;;;;;;;3.88;1.75;;;;;;;;;;4926588;29;20055;-83
2023/09/16 13:30:36;;;;;;;2.78;1.52;;;;;;;;;;4925780;29;20056;-83
2023/09/16 13:33:02;;;;;;;2.47;1.60;;;;;;;;;;4929119;29;20068;-83
2023/09/16 13:35:28;;;;;;;2.33;1.45;;;;;;;;;;4936127;29;20492;-83
2023/09/16 13:37:53;;;;;;;5.28;1.90;;;;;;;;;;4938454;29;20059;-83
2023/09/16 13:40:21;;;;;;;2.65;1.77;;;;;;;;;;4922055;29;20028;-83
2023/09/16 13:42:46;;;;;;;2.63;1.60;;;;;;;;;;4926006;29;20024;-83
2023/09/16 13:45:12;;;;;;;5.70;1.97;;;;;;;;;;4935574;29;20061;-83
2023/09/16 13:47:37;;;;;;;6.57;1.90;;;;;;;;;;4940503;29;20028;-83
2023/09/16 13:50:04;;;;;;;1.83;1.40;;;;;;;;;;4938076;29;20030;-83
2023/09/16 13:52:29;;;;;;;4.43;1.73;;;;;;;;;;4943915;29;20034;-83
2023/09/16 13:54:54;;;;;;;3.20;2.00;;;;;;;;;;4932561;29;20047;-83
2023/09/16 13:57:19;;;;;;;2.50;1.67;;;;;;;;;;4931941;29;20638;-84
2023/09/16 13:59:45;;;;;;;4.07;2.10;;;;;;;;;;4923571;29;20024;-83
2023/09/16 14:02:12;;;;;;;3.20;1.73;;;;;;;;;;4927744;29;20107;-83
2023/09/16 14:04:37;;;;;;;3.20;1.77;;;;;;;;;;4933543;29;20024;-83
2023/09/16 14:07:02;;;;;;;2.33;1.43;;;;;;;;;;4937143;29;20043;-83
2023/09/16 14:09:27;;;;;;;5.78;1.90;;;;;;;;;;4933143;29;20032;-83
2023/09/16 14:11:52;;;;;;;4.10;1.90;;;;;;;;;;4934553;29;20040;-84
2023/09/16 14:14:18;;;;;;;7.03;1.70;;;;;;;;;;4942031;29;20172;-84
2023/09/16 14:16:43;;;;;;;3.20;1.70;;;;;;;;;;4939244;29;20028;-84
2023/09/16 14:19:08;;;;;;;2.87;1.73;;;;;;;;;;4938808;29;20036;-84
2023/09/16 14:21:34;;;;;;;3.27;1.77;;;;;;;;;;4931510;29;20079;-84
2023/09/16 14:23:59;;;;;;;3.13;1.80;;;;;;;;;;4933148;29;20036;-83
2023/09/16 14:26:24;;;;;;;2.77;1.80;;;;;;;;;;4934230;29;20071;-83
2023/09/16 14:28:50;;;;;;;3.00;1.57;;;;;;;;;;4938331;29;20028;-83
2023/09/16 14:31:15;;;;;;;2.25;1.50;;;;;;;;;;4933690;29;20024;-84
2023/09/16 14:33:40;;;;;;;2.77;1.63;;;;;;;;;;4923164;29;20560;-83
2023/09/16 14:36:06;;;;;;;2.73;1.80;;;;;;;;;;4930060;29;20029;-83